sensor_id;sensor_type;location;lat;lon;timestamp;P1;durP1;ratioP1;P2;durP2;ratioP2
10550;SDS011;5324;50.684;3.862;2023-02-03T00:00:27;6.07;;;1.87;;
10550;SDS011;5324;50.684;3.862;2023-02-03T00:02:55;6.80;;;2.70;;
10550;SDS011;5324;50.684;3.862;2023-02-03T00:05:21;8.53;;;2.77;;
10550;SDS011;5324;50.684;3.862;2023-02-03T00:07:48;4.57;;;2.00;;
10550;SDS011;5324;50.684;3.862;2023-02-03T00:10:14;4.70;;;1.97;;
10550;SDS011;5324;50.684;3.862;2023-02-03T00:12:45;7.20;;;2.20;;
10550;SDS011;5324;50.684;3.862;2023-02-03T00:15:11;4.93;;;1.97;;
10550;SDS011;5324;50.684;3.862;2023-02-03T00:17:37;7.33;;;2.03;;
10550;SDS011;5324;50.684;3.862;2023-02-03T00:20:03;5.23;;;2.03;;
10550;SDS011;5324;50.684;3.862;2023-02-03T00:22:29;6.07;;;2.13;;
10550;SDS011;5324;50.684;3.862;2023-02-03T00:24:55;7.20;;;2.03;;
10550;SDS011;5324;50.684;3.862;2023-02-03T00:27:21;5.50;;;1.83;;
10550;SDS011;5324;50.684;3.862;2023-02-03T00:29:47;5.03;;;1.87;;
10550;SDS011;5324;50.684;3.862;2023-02-03T00:32:13;4.03;;;2.07;;
10550;SDS011;5324;50.684;3.862;2023-02-03T00:34:39;8.20;;;2.00;;
10550;SDS011;5324;50.684;3.862;2023-02-03T00:37:05;5.30;;;1.63;;
10550;SDS011;5324;50.684;3.862;2023-02-03T00:39:31;6.23;;;1.90;;
10550;SDS011;5324;50.684;3.862;2023-02-03T00:41:57;6.77;;;1.80;;
10550;SDS011;5324;50.684;3.862;2023-02-03T00:44:23;5.57;;;2.43;;
10550;SDS011;5324;50.684;3.862;2023-02-03T00:46:49;3.83;;;1.87;;
10550;SDS011;5324;50.684;3.862;2023-02-03T00:49:15;2.67;;;1.60;;
10550;SDS011;5324;50.684;3.862;2023-02-03T00:51:41;7.43;;;2.27;;
10550;SDS011;5324;50.684;3.862;2023-02-03T00:54:07;3.77;;;1.67;;
10550;SDS011;5324;50.684;3.862;2023-02-03T00:56:33;8.93;;;1.80;;
10550;SDS011;5324;50.684;3.862;2023-02-03T00:58:59;9.57;;;2.30;;
10550;SDS011;5324;50.684;3.862;2023-02-03T01:01:25;7.37;;;1.90;;
10550;SDS011;5324;50.684;3.862;2023-02-03T01:03:52;7.10;;;1.80;;
10550;SDS011;5324;50.684;3.862;2023-02-03T01:06:19;4.57;;;1.80;;
10550;SDS011;5324;50.684;3.862;2023-02-03T01:08:46;5.47;;;1.90;;
10550;SDS011;5324;50.684;3.862;2023-02-03T01:11:13;6.23;;;1.80;;
10550;SDS011;5324;50.684;3.862;2023-02-03T01:13:41;5.37;;;2.20;;
10550;SDS011;5324;50.684;3.862;2023-02-03T01:16:08;6.23;;;2.10;;
10550;SDS011;5324;50.684;3.862;2023-02-03T01:18:34;6.37;;;2.00;;
10550;SDS011;5324;50.684;3.862;2023-02-03T01:21:04;4.57;;;2.17;;
10550;SDS011;5324;50.684;3.862;2023-02-03T01:23:31;7.20;;;1.70;;
10550;SDS011;5324;50.684;3.862;2023-02-03T01:26:00;6.73;;;1.77;;
10550;SDS011;5324;50.684;3.862;2023-02-03T01:28:26;7.40;;;1.60;;
10550;SDS011;5324;50.684;3.862;2023-02-03T01:30:52;7.23;;;1.80;;
10550;SDS011;5324;50.684;3.862;2023-02-03T01:33:18;8.83;;;2.73;;
10550;SDS011;5324;50.684;3.862;2023-02-03T01:35:44;6.37;;;1.50;;
10550;SDS011;5324;50.684;3.862;2023-02-03T01:38:10;5.53;;;1.60;;
10550;SDS011;5324;50.684;3.862;2023-02-03T01:40:43;3.30;;;1.63;;
10550;SDS011;5324;50.684;3.862;2023-02-03T01:43:09;3.70;;;1.63;;
10550;SDS011;5324;50.684;3.862;2023-02-03T01:45:35;8.20;;;1.90;;
10550;SDS011;5324;50.684;3.862;2023-02-03T01:48:01;4.70;;;2.10;;
10550;SDS011;5324;50.684;3.862;2023-02-03T01:50:32;7.03;;;1.80;;
10550;SDS011;5324;50.684;3.862;2023-02-03T01:53:00;4.13;;;1.63;;
10550;SDS011;5324;50.684;3.862;2023-02-03T01:55:28;7.63;;;2.03;;
10550;SDS011;5324;50.684;3.862;2023-02-03T01:58:04;6.40;;;1.97;;
10550;SDS011;5324;50.684;3.862;2023-02-03T02:00:32;5.27;;;1.80;;
10550;SDS011;5324;50.684;3.862;2023-02-03T02:02:59;8.63;;;2.10;;
10550;SDS011;5324;50.684;3.862;2023-02-03T02:05:29;3.57;;;1.60;;
10550;SDS011;5324;50.684;3.862;2023-02-03T02:07:56;11.80;;;2.33;;
10550;SDS011;5324;50.684;3.862;2023-02-03T02:10:23;5.20;;;1.87;;
10550;SDS011;5324;50.684;3.862;2023-02-03T02:12:49;6.73;;;1.90;;
10550;SDS011;5324;50.684;3.862;2023-02-03T02:15:15;8.73;;;2.07;;
10550;SDS011;5324;50.684;3.862;2023-02-03T02:17:49;7.23;;;1.97;;
10550;SDS011;5324;50.684;3.862;2023-02-03T02:28:07;3.17;;;1.77;;
10550;SDS011;5324;50.684;3.862;2023-02-03T02:35:40;4.73;;;1.70;;
10550;SDS011;5324;50.684;3.862;2023-02-03T02:38:24;7.07;;;1.87;;
10550;SDS011;5324;50.684;3.862;2023-02-03T02:40:59;6.43;;;2.10;;
10550;SDS011;5324;50.684;3.862;2023-02-03T02:43:31;5.47;;;1.63;;
10550;SDS011;5324;50.684;3.862;2023-02-03T02:46:05;2.53;;;1.90;;
10550;SDS011;5324;50.684;3.862;2023-02-03T02:51:03;4.67;;;1.90;;
10550;SDS011;5324;50.684;3.862;2023-02-03T02:53:31;5.13;;;1.70;;
10550;SDS011;5324;50.684;3.862;2023-02-03T02:55:58;3.13;;;1.60;;
10550;SDS011;5324;50.684;3.862;2023-02-03T02:58:25;5.93;;;1.90;;
10550;SDS011;5324;50.684;3.862;2023-02-03T03:00:52;8.57;;;2.30;;
10550;SDS011;5324;50.684;3.862;2023-02-03T03:03:19;6.67;;;1.97;;
10550;SDS011;5324;50.684;3.862;2023-02-03T03:05:47;4.07;;;1.83;;
10550;SDS011;5324;50.684;3.862;2023-02-03T03:08:15;5.10;;;1.50;;
10550;SDS011;5324;50.684;3.862;2023-02-03T03:10:42;6.63;;;1.97;;
10550;SDS011;5324;50.684;3.862;2023-02-03T03:13:12;3.93;;;1.47;;
10550;SDS011;5324;50.684;3.862;2023-02-03T03:15:39;3.70;;;1.83;;
10550;SDS011;5324;50.684;3.862;2023-02-03T03:18:08;5.07;;;1.73;;
10550;SDS011;5324;50.684;3.862;2023-02-03T03:20:36;4.60;;;1.70;;
10550;SDS011;5324;50.684;3.862;2023-02-03T03:23:09;2.83;;;1.47;;
10550;SDS011;5324;50.684;3.862;2023-02-03T03:25:45;3.07;;;1.70;;
10550;SDS011;5324;50.684;3.862;2023-02-03T03:28:15;3.03;;;1.60;;
10550;SDS011;5324;50.684;3.862;2023-02-03T03:30:43;5.37;;;1.37;;
10550;SDS011;5324;50.684;3.862;2023-02-03T03:33:09;4.13;;;1.47;;
10550;SDS011;5324;50.684;3.862;2023-02-03T03:35:40;2.73;;;1.13;;
10550;SDS011;5324;50.684;3.862;2023-02-03T03:38:13;3.60;;;1.53;;
10550;SDS011;5324;50.684;3.862;2023-02-03T03:40:42;6.43;;;1.50;;
10550;SDS011;5324;50.684;3.862;2023-02-03T03:43:21;1.67;;;1.50;;
10550;SDS011;5324;50.684;3.862;2023-02-03T03:45:52;4.63;;;1.60;;
10550;SDS011;5324;50.684;3.862;2023-02-03T03:50:57;5.77;;;1.73;;
10550;SDS011;5324;50.684;3.862;2023-02-03T03:53:24;5.77;;;1.63;;
10550;SDS011;5324;50.684;3.862;2023-02-03T03:55:52;6.63;;;2.30;;
10550;SDS011;5324;50.684;3.862;2023-02-03T03:58:23;3.93;;;1.60;;
10550;SDS011;5324;50.684;3.862;2023-02-03T04:00:51;3.73;;;1.47;;
10550;SDS011;5324;50.684;3.862;2023-02-03T04:03:22;4.50;;;1.63;;
10550;SDS011;5324;50.684;3.862;2023-02-03T04:05:49;2.93;;;1.53;;
10550;SDS011;5324;50.684;3.862;2023-02-03T04:08:15;2.73;;;1.30;;
10550;SDS011;5324;50.684;3.862;2023-02-03T04:10:41;6.67;;;1.40;;
10550;SDS011;5324;50.684;3.862;2023-02-03T04:13:08;4.97;;;1.40;;
10550;SDS011;5324;50.684;3.862;2023-02-03T04:15:35;2.77;;;1.37;;
10550;SDS011;5324;50.684;3.862;2023-02-03T04:18:01;3.87;;;1.37;;
10550;SDS011;5324;50.684;3.862;2023-02-03T04:20:28;3.60;;;1.20;;
10550;SDS011;5324;50.684;3.862;2023-02-03T04:22:54;4.63;;;1.43;;
10550;SDS011;5324;50.684;3.862;2023-02-03T04:25:20;3.77;;;1.27;;
10550;SDS011;5324;50.684;3.862;2023-02-03T04:27:46;2.80;;;1.40;;
10550;SDS011;5324;50.684;3.862;2023-02-03T04:30:12;6.10;;;1.47;;
10550;SDS011;5324;50.684;3.862;2023-02-03T04:32:39;7.03;;;1.63;;
10550;SDS011;5324;50.684;3.862;2023-02-03T04:35:05;2.67;;;1.50;;
10550;SDS011;5324;50.684;3.862;2023-02-03T04:37:31;3.57;;;1.80;;
10550;SDS011;5324;50.684;3.862;2023-02-03T04:39:58;2.77;;;1.50;;
10550;SDS011;5324;50.684;3.862;2023-02-03T04:42:24;4.07;;;1.57;;
10550;SDS011;5324;50.684;3.862;2023-02-03T04:44:50;5.70;;;1.50;;
10550;SDS011;5324;50.684;3.862;2023-02-03T04:47:17;3.63;;;1.60;;
10550;SDS011;5324;50.684;3.862;2023-02-03T04:49:43;4.83;;;1.67;;
10550;SDS011;5324;50.684;3.862;2023-02-03T04:52:09;6.40;;;1.77;;
10550;SDS011;5324;50.684;3.862;2023-02-03T04:54:35;2.40;;;1.43;;
10550;SDS011;5324;50.684;3.862;2023-02-03T04:57:01;3.90;;;1.30;;
10550;SDS011;5324;50.684;3.862;2023-02-03T04:59:27;3.43;;;1.60;;
10550;SDS011;5324;50.684;3.862;2023-02-03T05:01:53;4.80;;;1.57;;
10550;SDS011;5324;50.684;3.862;2023-02-03T05:04:19;4.83;;;1.63;;
10550;SDS011;5324;50.684;3.862;2023-02-03T05:06:45;3.07;;;1.37;;
10550;SDS011;5324;50.684;3.862;2023-02-03T05:09:11;2.80;;;1.30;;
10550;SDS011;5324;50.684;3.862;2023-02-03T05:11:37;6.10;;;1.90;;
10550;SDS011;5324;50.684;3.862;2023-02-03T05:14:03;5.07;;;1.63;;
10550;SDS011;5324;50.684;3.862;2023-02-03T05:16:29;4.50;;;1.50;;
10550;SDS011;5324;50.684;3.862;2023-02-03T05:18:55;4.90;;;1.63;;
10550;SDS011;5324;50.684;3.862;2023-02-03T05:21:21;7.33;;;1.77;;
10550;SDS011;5324;50.684;3.862;2023-02-03T05:23:47;2.93;;;1.30;;
10550;SDS011;5324;50.684;3.862;2023-02-03T05:26:13;4.17;;;1.87;;
10550;SDS011;5324;50.684;3.862;2023-02-03T05:28:39;3.27;;;1.60;;
10550;SDS011;5324;50.684;3.862;2023-02-03T05:31:05;1.90;;;1.47;;
10550;SDS011;5324;50.684;3.862;2023-02-03T05:33:31;5.30;;;2.00;;
10550;SDS011;5324;50.684;3.862;2023-02-03T05:35:57;3.50;;;1.47;;
10550;SDS011;5324;50.684;3.862;2023-02-03T05:38:23;5.43;;;1.73;;
10550;SDS011;5324;50.684;3.862;2023-02-03T05:40:50;4.97;;;1.60;;
10550;SDS011;5324;50.684;3.862;2023-02-03T05:43:34;4.73;;;1.87;;
10550;SDS011;5324;50.684;3.862;2023-02-03T05:46:01;3.50;;;1.93;;
10550;SDS011;5324;50.684;3.862;2023-02-03T05:48:27;3.87;;;1.40;;
10550;SDS011;5324;50.684;3.862;2023-02-03T05:50:53;2.20;;;1.53;;
10550;SDS011;5324;50.684;3.862;2023-02-03T05:53:19;4.17;;;1.70;;
10550;SDS011;5324;50.684;3.862;2023-02-03T05:55:45;5.97;;;1.53;;
10550;SDS011;5324;50.684;3.862;2023-02-03T05:58:12;3.53;;;1.60;;
10550;SDS011;5324;50.684;3.862;2023-02-03T06:00:38;2.37;;;1.30;;
10550;SDS011;5324;50.684;3.862;2023-02-03T06:03:04;5.97;;;1.50;;
10550;SDS011;5324;50.684;3.862;2023-02-03T06:05:30;4.67;;;1.80;;
10550;SDS011;5324;50.684;3.862;2023-02-03T06:07:57;2.60;;;1.47;;
10550;SDS011;5324;50.684;3.862;2023-02-03T06:10:23;5.10;;;1.47;;
10550;SDS011;5324;50.684;3.862;2023-02-03T06:12:50;3.60;;;1.60;;
10550;SDS011;5324;50.684;3.862;2023-02-03T06:15:16;2.37;;;1.50;;
10550;SDS011;5324;50.684;3.862;2023-02-03T06:17:46;3.43;;;1.87;;
10550;SDS011;5324;50.684;3.862;2023-02-03T06:20:13;4.23;;;1.87;;
10550;SDS011;5324;50.684;3.862;2023-02-03T06:22:39;6.87;;;1.40;;
10550;SDS011;5324;50.684;3.862;2023-02-03T06:25:07;3.53;;;1.40;;
10550;SDS011;5324;50.684;3.862;2023-02-03T06:27:33;3.23;;;1.60;;
10550;SDS011;5324;50.684;3.862;2023-02-03T06:29:59;3.37;;;1.40;;
10550;SDS011;5324;50.684;3.862;2023-02-03T06:32:25;4.73;;;1.77;;
10550;SDS011;5324;50.684;3.862;2023-02-03T06:34:51;6.03;;;1.53;;
10550;SDS011;5324;50.684;3.862;2023-02-03T06:37:17;7.00;;;1.90;;
10550;SDS011;5324;50.684;3.862;2023-02-03T06:39:43;2.13;;;1.30;;
10550;SDS011;5324;50.684;3.862;2023-02-03T06:42:09;3.60;;;1.70;;
10550;SDS011;5324;50.684;3.862;2023-02-03T06:44:35;3.87;;;1.60;;
10550;SDS011;5324;50.684;3.862;2023-02-03T06:47:01;7.77;;;1.80;;
10550;SDS011;5324;50.684;3.862;2023-02-03T06:49:28;2.50;;;1.70;;
10550;SDS011;5324;50.684;3.862;2023-02-03T06:51:54;5.00;;;1.40;;
10550;SDS011;5324;50.684;3.862;2023-02-03T06:54:20;3.43;;;1.40;;
10550;SDS011;5324;50.684;3.862;2023-02-03T06:56:46;2.93;;;1.50;;
10550;SDS011;5324;50.684;3.862;2023-02-03T06:59:13;4.37;;;1.23;;
10550;SDS011;5324;50.684;3.862;2023-02-03T07:01:39;5.90;;;1.70;;
10550;SDS011;5324;50.684;3.862;2023-02-03T07:04:05;4.47;;;1.67;;
10550;SDS011;5324;50.684;3.862;2023-02-03T07:06:31;3.83;;;1.43;;
10550;SDS011;5324;50.684;3.862;2023-02-03T07:09:02;4.87;;;1.30;;
10550;SDS011;5324;50.684;3.862;2023-02-03T07:11:28;2.77;;;1.53;;
10550;SDS011;5324;50.684;3.862;2023-02-03T07:13:54;7.20;;;1.60;;
10550;SDS011;5324;50.684;3.862;2023-02-03T07:16:20;2.30;;;1.30;;
10550;SDS011;5324;50.684;3.862;2023-02-03T07:18:46;7.50;;;1.60;;
10550;SDS011;5324;50.684;3.862;2023-02-03T07:21:13;3.30;;;1.00;;
10550;SDS011;5324;50.684;3.862;2023-02-03T07:23:39;4.90;;;1.63;;
10550;SDS011;5324;50.684;3.862;2023-02-03T07:26:05;9.97;;;1.40;;
10550;SDS011;5324;50.684;3.862;2023-02-03T07:28:34;2.70;;;1.20;;
10550;SDS011;5324;50.684;3.862;2023-02-03T07:31:01;5.03;;;1.70;;
10550;SDS011;5324;50.684;3.862;2023-02-03T07:33:28;4.10;;;1.60;;
10550;SDS011;5324;50.684;3.862;2023-02-03T07:35:55;5.00;;;1.80;;
10550;SDS011;5324;50.684;3.862;2023-02-03T07:38:21;2.70;;;1.53;;
10550;SDS011;5324;50.684;3.862;2023-02-03T07:40:47;2.10;;;1.30;;
10550;SDS011;5324;50.684;3.862;2023-02-03T07:43:14;2.90;;;1.23;;
10550;SDS011;5324;50.684;3.862;2023-02-03T07:45:40;2.07;;;1.30;;
10550;SDS011;5324;50.684;3.862;2023-02-03T07:48:06;3.77;;;1.43;;
10550;SDS011;5324;50.684;3.862;2023-02-03T07:50:33;4.13;;;1.50;;
10550;SDS011;5324;50.684;3.862;2023-02-03T07:53:00;3.70;;;1.20;;
10550;SDS011;5324;50.684;3.862;2023-02-03T07:55:27;2.47;;;1.43;;
10550;SDS011;5324;50.684;3.862;2023-02-03T07:57:54;4.47;;;1.63;;
10550;SDS011;5324;50.684;3.862;2023-02-03T08:02:57;3.17;;;1.40;;
10550;SDS011;5324;50.684;3.862;2023-02-03T08:05:25;4.03;;;1.20;;
10550;SDS011;5324;50.684;3.862;2023-02-03T08:07:52;2.60;;;1.50;;
10550;SDS011;5324;50.684;3.862;2023-02-03T08:10:18;3.30;;;1.50;;
10550;SDS011;5324;50.684;3.862;2023-02-03T08:12:44;1.63;;;1.10;;
10550;SDS011;5324;50.684;3.862;2023-02-03T08:15:11;4.13;;;1.83;;
10550;SDS011;5324;50.684;3.862;2023-02-03T08:17:37;5.53;;;1.30;;
10550;SDS011;5324;50.684;3.862;2023-02-03T08:20:05;2.73;;;1.20;;
10550;SDS011;5324;50.684;3.862;2023-02-03T08:25:09;2.73;;;1.33;;
10550;SDS011;5324;50.684;3.862;2023-02-03T08:36:52;4.53;;;1.30;;
10550;SDS011;5324;50.684;3.862;2023-02-03T08:42:13;2.37;;;1.30;;
10550;SDS011;5324;50.684;3.862;2023-02-03T08:44:40;5.77;;;1.60;;
10550;SDS011;5324;50.684;3.862;2023-02-03T08:47:11;5.20;;;1.40;;
10550;SDS011;5324;50.684;3.862;2023-02-03T08:49:37;4.80;;;1.70;;
10550;SDS011;5324;50.684;3.862;2023-02-03T08:52:04;2.13;;;1.20;;
10550;SDS011;5324;50.684;3.862;2023-02-03T08:54:32;3.53;;;1.10;;
10550;SDS011;5324;50.684;3.862;2023-02-03T08:56:59;5.03;;;1.70;;
10550;SDS011;5324;50.684;3.862;2023-02-03T08:59:26;3.47;;;1.50;;
10550;SDS011;5324;50.684;3.862;2023-02-03T09:01:54;4.63;;;1.60;;
10550;SDS011;5324;50.684;3.862;2023-02-03T09:10:08;4.23;;;1.50;;
10550;SDS011;5324;50.684;3.862;2023-02-03T09:12:34;4.20;;;1.50;;
10550;SDS011;5324;50.684;3.862;2023-02-03T09:15:01;6.00;;;1.60;;
10550;SDS011;5324;50.684;3.862;2023-02-03T09:17:27;8.13;;;4.73;;
10550;SDS011;5324;50.684;3.862;2023-02-03T09:20:08;7.30;;;4.07;;
10550;SDS011;5324;50.684;3.862;2023-02-03T09:22:34;8.17;;;2.80;;
10550;SDS011;5324;50.684;3.862;2023-02-03T09:25:00;4.03;;;2.73;;
10550;SDS011;5324;50.684;3.862;2023-02-03T09:27:26;4.60;;;2.50;;
10550;SDS011;5324;50.684;3.862;2023-02-03T09:29:52;5.27;;;2.90;;
10550;SDS011;5324;50.684;3.862;2023-02-03T09:34:44;6.97;;;2.53;;
10550;SDS011;5324;50.684;3.862;2023-02-03T09:37:14;5.03;;;1.70;;
10550;SDS011;5324;50.684;3.862;2023-02-03T09:39:46;5.80;;;2.57;;
10550;SDS011;5324;50.684;3.862;2023-02-03T09:42:23;2.97;;;1.90;;
10550;SDS011;5324;50.684;3.862;2023-02-03T09:45:02;3.23;;;1.73;;
10550;SDS011;5324;50.684;3.862;2023-02-03T09:47:34;4.20;;;1.77;;
10550;SDS011;5324;50.684;3.862;2023-02-03T09:50:05;2.60;;;1.40;;
10550;SDS011;5324;50.684;3.862;2023-02-03T09:52:33;3.47;;;1.33;;
10550;SDS011;5324;50.684;3.862;2023-02-03T09:58:20;3.93;;;1.40;;
10550;SDS011;5324;50.684;3.862;2023-02-03T10:03:16;5.23;;;1.87;;
10550;SDS011;5324;50.684;3.862;2023-02-03T10:05:51;7.53;;;1.93;;
10550;SDS011;5324;50.684;3.862;2023-02-03T10:10:52;3.70;;;1.30;;
10550;SDS011;5324;50.684;3.862;2023-02-03T10:16:15;5.47;;;2.17;;
10550;SDS011;5324;50.684;3.862;2023-02-03T10:18:47;3.40;;;1.90;;
10550;SDS011;5324;50.684;3.862;2023-02-03T12:44:20;3.83;;;1.60;;
10550;SDS011;5324;50.684;3.862;2023-02-03T12:49:46;4.33;;;1.70;;
10550;SDS011;5324;50.684;3.862;2023-02-03T14:42:32;4.13;;;2.47;;
10550;SDS011;5324;50.684;3.862;2023-02-03T14:52:59;5.63;;;2.77;;
10550;SDS011;5324;50.684;3.862;2023-02-03T14:58:26;4.37;;;2.37;;
10550;SDS011;5324;50.684;3.862;2023-02-03T15:00:51;4.40;;;1.93;;
10550;SDS011;5324;50.684;3.862;2023-02-03T15:03:22;3.40;;;2.13;;
10550;SDS011;5324;50.684;3.862;2023-02-03T15:06:34;3.13;;;2.07;;
10550;SDS011;5324;50.684;3.862;2023-02-03T15:08:58;4.40;;;2.43;;
10550;SDS011;5324;50.684;3.862;2023-02-03T15:11:31;2.60;;;2.27;;
10550;SDS011;5324;50.684;3.862;2023-02-03T15:19:27;3.13;;;2.43;;
10550;SDS011;5324;50.684;3.862;2023-02-03T15:21:54;3.47;;;2.40;;
10550;SDS011;5324;50.684;3.862;2023-02-03T15:24:20;6.57;;;2.97;;
10550;SDS011;5324;50.684;3.862;2023-02-03T15:26:56;3.17;;;2.60;;
10550;SDS011;5324;50.684;3.862;2023-02-03T15:29:29;3.97;;;2.80;;
10550;SDS011;5324;50.684;3.862;2023-02-03T15:34:49;3.83;;;2.87;;
10550;SDS011;5324;50.684;3.862;2023-02-03T15:37:28;3.37;;;2.50;;
10550;SDS011;5324;50.684;3.862;2023-02-03T15:40:03;4.50;;;2.47;;
10550;SDS011;5324;50.684;3.862;2023-02-03T15:42:38;4.93;;;2.43;;
10550;SDS011;5324;50.684;3.862;2023-02-03T15:45:25;3.73;;;2.47;;
10550;SDS011;5324;50.684;3.862;2023-02-03T15:47:57;3.57;;;2.30;;
10550;SDS011;5324;50.684;3.862;2023-02-03T15:53:15;2.93;;;2.43;;
10550;SDS011;5324;50.684;3.862;2023-02-03T15:55:45;2.67;;;2.07;;
10550;SDS011;5324;50.684;3.862;2023-02-03T16:07:47;3.90;;;3.07;;
10550;SDS011;5324;50.684;3.862;2023-02-03T16:10:26;3.87;;;2.37;;
10550;SDS011;5324;50.684;3.862;2023-02-03T16:12:53;4.83;;;2.87;;
10550;SDS011;5324;50.684;3.862;2023-02-03T16:15:34;3.57;;;2.17;;
10550;SDS011;5324;50.684;3.862;2023-02-03T16:18:01;4.07;;;2.70;;
10550;SDS011;5324;50.684;3.862;2023-02-03T16:20:31;4.00;;;2.70;;
10550;SDS011;5324;50.684;3.862;2023-02-03T16:22:59;6.53;;;3.17;;
10550;SDS011;5324;50.684;3.862;2023-02-03T16:25:26;4.07;;;2.87;;
10550;SDS011;5324;50.684;3.862;2023-02-03T16:31:09;5.30;;;2.97;;
10550;SDS011;5324;50.684;3.862;2023-02-03T16:37:12;4.80;;;3.33;;
10550;SDS011;5324;50.684;3.862;2023-02-03T16:39:57;4.10;;;3.27;;
10550;SDS011;5324;50.684;3.862;2023-02-03T16:42:43;3.97;;;2.87;;
10550;SDS011;5324;50.684;3.862;2023-02-03T16:45:34;4.63;;;2.90;;
10550;SDS011;5324;50.684;3.862;2023-02-03T16:48:19;3.40;;;2.63;;
10550;SDS011;5324;50.684;3.862;2023-02-03T16:51:05;5.87;;;4.10;;
10550;SDS011;5324;50.684;3.862;2023-02-03T16:53:33;3.37;;;2.53;;
10550;SDS011;5324;50.684;3.862;2023-02-03T16:56:02;7.00;;;2.90;;
10550;SDS011;5324;50.684;3.862;2023-02-03T16:58:34;3.40;;;2.67;;
10550;SDS011;5324;50.684;3.862;2023-02-03T17:01:02;4.53;;;3.03;;
10550;SDS011;5324;50.684;3.862;2023-02-03T17:03:47;4.90;;;2.50;;
10550;SDS011;5324;50.684;3.862;2023-02-03T17:16:58;6.83;;;3.20;;
10550;SDS011;5324;50.684;3.862;2023-02-03T17:19:27;5.37;;;3.33;;
10550;SDS011;5324;50.684;3.862;2023-02-03T17:24:39;8.27;;;2.97;;
10550;SDS011;5324;50.684;3.862;2023-02-03T17:27:07;5.30;;;3.10;;
10550;SDS011;5324;50.684;3.862;2023-02-03T17:29:36;5.70;;;3.13;;
10550;SDS011;5324;50.684;3.862;2023-02-03T17:32:02;6.93;;;3.20;;
10550;SDS011;5324;50.684;3.862;2023-02-03T17:34:28;8.43;;;3.27;;
10550;SDS011;5324;50.684;3.862;2023-02-03T17:36:54;4.40;;;3.63;;
10550;SDS011;5324;50.684;3.862;2023-02-03T17:39:20;8.37;;;5.27;;
10550;SDS011;5324;50.684;3.862;2023-02-03T17:42:00;10.70;;;5.30;;
10550;SDS011;5324;50.684;3.862;2023-02-03T17:44:40;7.20;;;3.87;;
10550;SDS011;5324;50.684;3.862;2023-02-03T17:47:24;4.10;;;3.20;;
10550;SDS011;5324;50.684;3.862;2023-02-03T17:53:22;5.80;;;3.70;;
10550;SDS011;5324;50.684;3.862;2023-02-03T17:56:06;5.20;;;3.40;;
10550;SDS011;5324;50.684;3.862;2023-02-03T17:58:37;8.30;;;3.90;;
10550;SDS011;5324;50.684;3.862;2023-02-03T18:01:12;7.20;;;3.80;;
10550;SDS011;5324;50.684;3.862;2023-02-03T18:03:55;8.80;;;4.10;;
10550;SDS011;5324;50.684;3.862;2023-02-03T18:09:06;9.10;;;3.77;;
10550;SDS011;5324;50.684;3.862;2023-02-03T18:11:35;7.43;;;3.97;;
10550;SDS011;5324;50.684;3.862;2023-02-03T18:14:01;4.53;;;3.87;;
10550;SDS011;5324;50.684;3.862;2023-02-03T18:16:29;6.80;;;4.13;;
10550;SDS011;5324;50.684;3.862;2023-02-03T18:19:00;5.63;;;3.80;;
10550;SDS011;5324;50.684;3.862;2023-02-03T18:21:26;5.70;;;4.23;;
10550;SDS011;5324;50.684;3.862;2023-02-03T18:23:53;9.63;;;4.27;;
10550;SDS011;5324;50.684;3.862;2023-02-03T18:26:23;5.50;;;3.87;;
10550;SDS011;5324;50.684;3.862;2023-02-03T18:28:53;9.87;;;4.33;;
10550;SDS011;5324;50.684;3.862;2023-02-03T18:31:20;6.93;;;4.10;;
10550;SDS011;5324;50.684;3.862;2023-02-03T18:33:46;9.87;;;4.40;;
10550;SDS011;5324;50.684;3.862;2023-02-03T18:36:14;6.03;;;4.47;;
10550;SDS011;5324;50.684;3.862;2023-02-03T18:38:41;7.53;;;4.10;;
10550;SDS011;5324;50.684;3.862;2023-02-03T18:41:08;6.43;;;4.47;;
10550;SDS011;5324;50.684;3.862;2023-02-03T18:43:36;7.20;;;4.60;;
10550;SDS011;5324;50.684;3.862;2023-02-03T18:46:09;7.50;;;4.47;;
10550;SDS011;5324;50.684;3.862;2023-02-03T18:48:35;6.80;;;4.10;;
10550;SDS011;5324;50.684;3.862;2023-02-03T18:53:44;9.93;;;4.40;;
10550;SDS011;5324;50.684;3.862;2023-02-03T18:56:18;5.70;;;4.03;;
10550;SDS011;5324;50.684;3.862;2023-02-03T18:58:44;6.80;;;4.57;;
10550;SDS011;5324;50.684;3.862;2023-02-03T19:01:25;7.90;;;3.90;;
10550;SDS011;5324;50.684;3.862;2023-02-03T19:03:52;6.97;;;4.77;;
10550;SDS011;5324;50.684;3.862;2023-02-03T19:08:49;7.00;;;4.73;;
10550;SDS011;5324;50.684;3.862;2023-02-03T19:11:16;8.63;;;4.87;;
10550;SDS011;5324;50.684;3.862;2023-02-03T19:19:24;7.67;;;4.80;;
10550;SDS011;5324;50.684;3.862;2023-02-03T19:21:50;8.87;;;5.07;;
10550;SDS011;5324;50.684;3.862;2023-02-03T19:24:16;9.87;;;4.93;;
10550;SDS011;5324;50.684;3.862;2023-02-03T19:26:43;7.50;;;4.73;;
10550;SDS011;5324;50.684;3.862;2023-02-03T19:29:09;9.10;;;4.83;;
10550;SDS011;5324;50.684;3.862;2023-02-03T19:31:37;9.47;;;5.17;;
10550;SDS011;5324;50.684;3.862;2023-02-03T19:40:09;10.87;;;5.83;;
10550;SDS011;5324;50.684;3.862;2023-02-03T19:42:37;10.37;;;6.40;;
10550;SDS011;5324;50.684;3.862;2023-02-03T19:45:03;11.57;;;6.13;;
10550;SDS011;5324;50.684;3.862;2023-02-03T19:47:30;7.43;;;6.07;;
10550;SDS011;5324;50.684;3.862;2023-02-03T19:49:56;10.13;;;5.97;;
10550;SDS011;5324;50.684;3.862;2023-02-03T19:52:23;10.33;;;6.00;;
10550;SDS011;5324;50.684;3.862;2023-02-03T19:54:50;12.17;;;7.40;;
10550;SDS011;5324;50.684;3.862;2023-02-03T19:57:20;10.03;;;6.20;;
10550;SDS011;5324;50.684;3.862;2023-02-03T20:02:36;12.80;;;7.60;;
10550;SDS011;5324;50.684;3.862;2023-02-03T20:05:02;10.07;;;8.00;;
10550;SDS011;5324;50.684;3.862;2023-02-03T20:07:28;12.47;;;7.90;;
10550;SDS011;5324;50.684;3.862;2023-02-03T20:09:57;12.97;;;6.97;;
10550;SDS011;5324;50.684;3.862;2023-02-03T20:12:44;9.90;;;7.10;;
10550;SDS011;5324;50.684;3.862;2023-02-03T20:15:28;15.60;;;9.33;;
10550;SDS011;5324;50.684;3.862;2023-02-03T20:17:54;13.67;;;7.87;;
10550;SDS011;5324;50.684;3.862;2023-02-03T20:20:23;12.63;;;8.07;;
10550;SDS011;5324;50.684;3.862;2023-02-03T20:22:50;8.17;;;6.50;;
10550;SDS011;5324;50.684;3.862;2023-02-03T20:25:16;13.37;;;7.40;;
10550;SDS011;5324;50.684;3.862;2023-02-03T20:27:43;12.57;;;8.27;;
10550;SDS011;5324;50.684;3.862;2023-02-03T20:30:09;13.30;;;7.27;;
10550;SDS011;5324;50.684;3.862;2023-02-03T20:32:36;11.13;;;8.20;;
10550;SDS011;5324;50.684;3.862;2023-02-03T20:35:04;8.97;;;7.63;;
10550;SDS011;5324;50.684;3.862;2023-02-03T20:37:30;10.87;;;7.70;;
10550;SDS011;5324;50.684;3.862;2023-02-03T20:39:57;11.03;;;8.33;;
10550;SDS011;5324;50.684;3.862;2023-02-03T20:42:23;12.33;;;8.13;;
10550;SDS011;5324;50.684;3.862;2023-02-03T20:44:50;9.40;;;7.47;;
10550;SDS011;5324;50.684;3.862;2023-02-03T20:53:14;14.57;;;7.90;;
10550;SDS011;5324;50.684;3.862;2023-02-03T21:04:24;10.83;;;6.97;;
10550;SDS011;5324;50.684;3.862;2023-02-03T21:07:27;9.83;;;6.27;;
10550;SDS011;5324;50.684;3.862;2023-02-03T21:09:55;8.77;;;6.80;;
10550;SDS011;5324;50.684;3.862;2023-02-03T21:12:21;13.07;;;7.33;;
10550;SDS011;5324;50.684;3.862;2023-02-03T21:14:47;14.33;;;7.67;;
10550;SDS011;5324;50.684;3.862;2023-02-03T21:19:50;13.50;;;7.27;;
10550;SDS011;5324;50.684;3.862;2023-02-03T21:22:21;13.87;;;7.40;;
10550;SDS011;5324;50.684;3.862;2023-02-03T21:24:48;8.87;;;6.77;;
10550;SDS011;5324;50.684;3.862;2023-02-03T21:27:23;11.53;;;8.40;;
10550;SDS011;5324;50.684;3.862;2023-02-03T21:29:50;10.63;;;6.70;;
10550;SDS011;5324;50.684;3.862;2023-02-03T21:32:19;9.63;;;7.00;;
10550;SDS011;5324;50.684;3.862;2023-02-03T21:34:46;13.23;;;7.53;;
10550;SDS011;5324;50.684;3.862;2023-02-03T21:39:39;13.60;;;8.23;;
10550;SDS011;5324;50.684;3.862;2023-02-03T21:53:27;16.00;;;8.10;;
10550;SDS011;5324;50.684;3.862;2023-02-03T21:55:55;11.87;;;7.43;;
10550;SDS011;5324;50.684;3.862;2023-02-03T22:06:15;12.93;;;8.10;;
10550;SDS011;5324;50.684;3.862;2023-02-03T22:08:44;10.87;;;7.47;;
10550;SDS011;5324;50.684;3.862;2023-02-03T22:11:10;10.97;;;7.43;;
10550;SDS011;5324;50.684;3.862;2023-02-03T22:13:37;12.73;;;7.90;;
10550;SDS011;5324;50.684;3.862;2023-02-03T22:16:03;11.13;;;7.90;;